createdAt,value
2019-04-03T00:00:11.984Z,15.42
2019-04-03T00:01:12.041Z,15.71
2019-04-03T00:03:05.080Z,15.52
2019-04-03T00:04:05.083Z,15.42
2019-04-03T00:05:58.085Z,15.71
2019-04-03T00:06:58.125Z,15.90
2019-04-03T00:08:51.118Z,16.38
2019-04-03T00:09:51.276Z,16.47
2019-04-03T00:11:44.171Z,16.19
2019-04-03T00:12:44.225Z,16.19
2019-04-03T00:14:37.187Z,15.61
2019-04-03T00:15:37.244Z,16.00
2019-04-03T00:17:30.344Z,16.38
2019-04-03T00:18:30.501Z,16.75
2019-04-03T00:20:23.283Z,16.66
2019-04-03T00:21:23.359Z,16.47
2019-04-03T00:23:16.360Z,16.28
2019-04-03T00:24:16.402Z,16.28
2019-04-03T00:26:09.418Z,16.38
2019-04-03T00:27:09.436Z,16.47
2019-04-03T00:29:02.421Z,16.09
2019-04-03T00:30:02.642Z,16.66
2019-04-03T00:31:55.603Z,16.56
2019-04-03T00:32:55.695Z,16.47
2019-04-03T00:34:48.501Z,16.47
2019-04-03T00:35:48.563Z,16.56
2019-04-03T00:37:41.716Z,16.56
2019-04-03T00:38:41.613Z,16.47
2019-04-03T00:40:34.622Z,16.47
2019-04-03T00:41:34.654Z,16.47
2019-04-03T00:43:27.638Z,16.09
2019-04-03T00:44:27.696Z,16.67
2019-04-03T00:46:20.733Z,16.38
2019-04-03T00:47:20.736Z,16.19
2019-04-03T00:49:13.714Z,15.71
2019-04-03T00:50:13.774Z,16.09
2019-04-03T00:52:06.816Z,16.00
2019-04-03T00:53:06.833Z,16.28
2019-04-03T00:54:59.839Z,16.19
2019-04-03T00:56:00.252Z,16.00
2019-04-03T00:57:52.872Z,16.00
2019-04-03T00:58:53.724Z,16.66
2019-04-03T01:00:45.984Z,16.58
2019-04-03T01:01:45.950Z,17.52
2019-04-03T01:03:39.090Z,17.43
2019-04-03T01:04:38.999Z,17.52
2019-04-03T01:06:31.996Z,17.33
2019-04-03T01:07:32.030Z,17.61
2019-04-03T01:09:25.020Z,17.80
2019-04-03T01:10:25.064Z,17.23
2019-04-03T01:12:18.042Z,17.23
2019-04-03T01:13:18.112Z,17.52
2019-04-03T01:15:11.095Z,17.23
2019-04-03T01:16:11.157Z,17.23
2019-04-03T01:18:05.134Z,16.19
2019-04-03T01:19:05.739Z,16.47
2019-04-03T01:20:57.162Z,16.09
2019-04-03T01:21:57.221Z,16.66
2019-04-03T01:23:50.223Z,16.19
2019-04-03T01:24:50.266Z,16.38
2019-04-03T01:26:43.270Z,16.66
2019-04-03T01:27:43.310Z,16.28
2019-04-03T01:29:36.319Z,16.66
2019-04-03T01:30:36.349Z,16.75
2019-04-03T01:32:29.328Z,17.23
2019-04-03T01:33:29.391Z,17.33
2019-04-03T01:35:22.388Z,17.14
2019-04-03T01:36:22.624Z,16.95
2019-04-03T01:38:15.443Z,16.95
2019-04-03T01:39:15.502Z,17.04
2019-04-03T01:41:08.494Z,16.47
2019-04-03T01:42:08.535Z,17.14
2019-04-03T01:44:01.535Z,17.61
2019-04-03T01:45:01.596Z,17.61
2019-04-03T01:46:57.330Z,17.04
2019-04-03T01:47:57.434Z,18.28
2019-04-03T01:49:47.651Z,18.38
2019-04-03T01:50:47.680Z,18.85
2019-04-03T01:52:40.688Z,18.85
2019-04-03T01:53:40.796Z,19.04
2019-04-03T01:55:35.078Z,19.04
2019-04-03T01:56:35.668Z,19.04
2019-04-03T01:58:27.271Z,20.09
2019-04-03T01:59:27.354Z,20.37
2019-04-03T02:01:20.316Z,20.47
2019-04-03T02:02:20.503Z,20.18
2019-04-03T02:04:13.394Z,20.18
2019-04-03T02:05:13.394Z,20.18
2019-04-03T02:07:06.606Z,20.37
2019-04-03T02:08:06.437Z,21.23
2019-04-03T02:09:59.500Z,21.23
2019-04-03T02:10:59.676Z,23.04
2019-04-03T02:12:53.126Z,23.04
2019-04-03T02:13:53.153Z,22.38
2019-04-03T02:15:46.156Z,23.33
2019-04-03T02:16:46.187Z,25.04
2019-04-03T02:18:39.170Z,25.04
2019-04-03T02:19:39.344Z,24.47
2019-04-03T02:21:32.237Z,26.76
2019-04-03T02:22:32.274Z,26.85
2019-04-03T02:24:25.257Z,28.36
2019-04-03T02:25:25.316Z,27.88
2019-04-03T02:27:18.355Z,27.98
2019-04-03T02:28:18.385Z,30.36
2019-04-03T02:30:12.959Z,32.74
2019-04-03T02:31:11.421Z,35.88
2019-04-03T02:33:04.417Z,33.97
2019-04-03T02:34:04.475Z,33.97
2019-04-03T02:35:57.653Z,35.60
2019-04-03T02:36:57.621Z,37.30
2019-04-03T02:38:51.513Z,37.78
2019-04-03T02:39:50.546Z,37.49
2019-04-03T02:41:43.534Z,36.74
2019-04-03T02:42:43.573Z,36.35
2019-04-03T02:44:36.570Z,34.64
2019-04-03T02:45:36.642Z,34.45
2019-04-03T02:47:32.435Z,33.22
2019-04-03T02:48:29.665Z,32.26
2019-04-03T02:50:22.661Z,31.50
2019-04-03T02:51:22.698Z,30.36
2019-04-03T02:53:15.819Z,30.46
2019-04-03T02:54:15.749Z,30.74
2019-04-03T02:56:11.586Z,31.02
2019-04-03T02:57:08.809Z,30.46
2019-04-03T02:59:01.795Z,29.60
2019-04-03T03:00:01.915Z,29.60
2019-04-03T03:01:54.960Z,31.69
2019-04-03T03:02:54.997Z,31.31
2019-04-03T03:04:48.187Z,32.93
2019-04-03T03:05:47.930Z,31.50
2019-04-03T03:07:40.899Z,33.59
2019-04-03T03:08:42.484Z,34.45
2019-04-03T03:10:33.978Z,35.60
2019-04-03T03:11:33.996Z,36.35
2019-04-03T03:13:27.004Z,35.69
2019-04-03T03:14:27.039Z,35.40
2019-04-03T03:16:20.146Z,36.45
2019-04-03T03:17:22.487Z,37.69
2019-04-03T03:19:13.090Z,37.78
2019-04-03T03:20:13.363Z,36.93
2019-04-03T03:22:06.113Z,37.97
2019-04-03T03:23:06.339Z,36.35
2019-04-03T03:25:00.960Z,36.55
2019-04-03T03:25:59.223Z,36.45
2019-04-03T03:27:52.180Z,35.60
2019-04-03T03:28:52.222Z,35.88
2019-04-03T03:30:55.773Z,35.60
2019-04-03T03:32:05.476Z,35.50
2019-04-03T03:33:40.609Z,35.60
2019-04-03T03:34:55.029Z,34.92
2019-04-03T03:36:31.427Z,35.31
2019-04-03T03:37:34.186Z,35.40
2019-04-03T03:39:36.031Z,33.88
2019-04-03T03:40:36.152Z,33.78
2019-04-03T03:42:30.976Z,33.78
2019-04-03T03:43:29.127Z,34.74
2019-04-03T03:45:22.098Z,32.93
2019-04-03T03:46:26.470Z,33.88
2019-04-03T03:48:15.197Z,32.83
2019-04-03T03:49:17.209Z,32.34
2019-04-03T03:51:08.589Z,32.53
2019-04-03T03:52:08.243Z,31.87
2019-04-03T03:54:01.293Z,30.34
2019-04-03T03:55:04.373Z,31.96
2019-04-03T03:56:54.361Z,31.48
2019-04-03T03:57:54.401Z,31.77
2019-04-03T03:59:50.454Z,31.39
2019-04-03T04:00:51.767Z,31.39
2019-04-03T04:02:43.502Z,30.54
2019-04-03T04:03:41.707Z,30.63
2019-04-03T04:05:34.021Z,29.39
2019-04-03T04:06:35.876Z,29.30
2019-04-03T04:08:26.530Z,29.49
2019-04-03T04:09:26.573Z,30.15
2019-04-03T04:11:19.969Z,28.72
2019-04-03T04:12:19.672Z,28.82
2019-04-03T04:14:12.697Z,28.53
2019-04-03T04:15:12.731Z,28.44
2019-04-03T04:17:08.605Z,28.16
2019-04-03T04:18:06.069Z,28.82
2019-04-03T04:20:03.109Z,28.44
2019-04-03T04:20:58.828Z,28.06
2019-04-03T04:22:51.837Z,28.25
2019-04-03T04:23:53.168Z,28.53
2019-04-03T04:25:44.876Z,28.44
2019-04-03T04:26:44.893Z,28.16
2019-04-03T04:28:40.225Z,28.06
2019-04-03T04:29:38.035Z,28.25
2019-04-03T04:31:31.585Z,28.25
2019-04-03T04:32:31.198Z,27.58
2019-04-03T04:34:24.057Z,27.97
2019-04-03T04:35:24.141Z,28.06
2019-04-03T04:37:17.139Z,26.54
2019-04-03T04:38:17.373Z,27.39
2019-04-03T04:40:10.260Z,26.44
2019-04-03T04:41:10.333Z,27.49
2019-04-03T04:43:04.394Z,27.97
2019-04-03T04:44:03.398Z,27.58
2019-04-03T04:45:56.439Z,27.30
2019-04-03T04:46:56.353Z,27.01
2019-04-03T04:48:50.976Z,27.01
2019-04-03T04:49:49.365Z,27.39
2019-04-03T04:51:42.452Z,28.25
2019-04-03T04:52:42.416Z,29.39
2019-04-03T04:54:35.410Z,29.86
2019-04-03T04:55:35.981Z,29.39
2019-04-03T04:57:28.515Z,28.92
2019-04-03T04:58:28.509Z,28.53
2019-04-03T05:00:21.511Z,29.39
2019-04-03T05:01:21.551Z,28.44
2019-04-03T05:03:15.046Z,27.78
2019-04-03T05:04:15.957Z,28.44
2019-04-03T05:06:08.085Z,27.97
2019-04-03T05:07:08.206Z,28.16
2019-04-03T05:09:03.226Z,29.11
2019-04-03T05:10:01.171Z,28.92
2019-04-03T05:11:54.153Z,28.44
2019-04-03T05:12:54.212Z,28.25
2019-04-03T05:14:48.934Z,27.68
2019-04-03T05:15:47.339Z,27.78
2019-04-03T05:17:40.243Z,27.97
2019-04-03T05:18:40.299Z,27.30
2019-04-03T05:20:33.279Z,29.01
2019-04-03T05:21:33.317Z,28.44
2019-04-03T05:23:26.325Z,30.34
2019-04-03T05:24:26.917Z,28.82
2019-04-03T05:26:21.061Z,28.44
2019-04-03T05:27:19.399Z,28.34
2019-04-03T05:29:12.403Z,28.16
2019-04-03T05:30:12.509Z,27.30
2019-04-03T05:32:05.478Z,27.11
2019-04-03T05:33:05.502Z,27.68
2019-04-03T05:34:58.498Z,27.97
2019-04-03T05:35:58.543Z,27.97
2019-04-03T05:37:51.577Z,28.53
2019-04-03T05:38:53.547Z,29.77
2019-04-03T05:40:44.587Z,29.01
2019-04-03T05:41:44.627Z,31.29
2019-04-03T05:43:37.810Z,31.96
2019-04-03T05:44:37.662Z,33.10
2019-04-03T05:46:30.674Z,33.77
2019-04-03T05:47:30.720Z,33.48
2019-04-03T05:49:23.905Z,33.10
2019-04-03T05:50:24.355Z,32.24
2019-04-03T05:52:16.749Z,32.82
2019-04-03T05:53:16.783Z,34.34
2019-04-03T05:55:10.215Z,34.55
2019-04-03T05:56:11.617Z,35.78
2019-04-03T05:58:03.125Z,34.83
2019-04-03T05:59:03.146Z,34.45
2019-04-03T06:01:04.400Z,33.31
2019-04-03T06:01:55.890Z,34.17
2019-04-03T06:03:49.379Z,35.31
2019-04-03T06:04:49.451Z,35.69
2019-04-03T06:06:42.587Z,33.59
2019-04-03T06:07:42.483Z,33.88
2019-04-03T06:09:35.483Z,34.17
2019-04-03T06:10:37.357Z,34.92
2019-04-03T06:12:28.594Z,36.35
2019-04-03T06:13:28.555Z,36.83
2019-04-03T06:15:22.069Z,35.60
2019-04-03T06:16:23.431Z,36.55
2019-04-03T06:18:17.313Z,35.10
2019-04-03T06:19:14.642Z,33.77
2019-04-03T06:21:07.616Z,31.87
2019-04-03T06:22:09.843Z,33.29
2019-04-03T06:24:00.660Z,34.15
2019-04-03T06:25:00.701Z,35.29
2019-04-03T06:26:53.752Z,34.26
2019-04-03T06:27:53.748Z,34.74
2019-04-03T06:29:46.895Z,35.40
2019-04-03T06:30:46.774Z,36.64
2019-04-03T06:32:40.005Z,36.91
2019-04-03T06:33:40.034Z,35.67
2019-04-03T06:35:34.759Z,34.81
2019-04-03T06:36:32.863Z,34.81
2019-04-03T06:38:25.881Z,36.33
2019-04-03T06:39:30.367Z,35.19
2019-04-03T06:41:18.909Z,34.44
2019-04-03T06:42:18.946Z,33.48
2019-04-03T06:44:11.957Z,31.98
2019-04-03T06:45:14.948Z,31.29
2019-04-03T06:47:05.262Z,32.17
2019-04-03T06:48:05.575Z,32.17
2019-04-03T06:49:58.027Z,34.36
2019-04-03T06:50:58.225Z,35.21
2019-04-03T06:52:51.275Z,35.60
2019-04-03T06:53:51.110Z,34.83
2019-04-03T06:55:44.341Z,32.07
2019-04-03T06:56:44.143Z,32.45
2019-04-03T06:58:39.472Z,36.74
2019-04-03T06:59:37.193Z,35.50
2019-04-03T07:01:30.185Z,37.21
2019-04-03T07:02:32.262Z,35.69
2019-04-03T07:04:23.218Z,34.07
2019-04-03T07:05:23.267Z,35.21
2019-04-03T07:07:31.489Z,33.97
2019-04-03T07:08:28.628Z,32.45
2019-04-03T07:10:09.728Z,33.03
2019-04-03T07:11:09.354Z,32.35
2019-04-03T07:13:02.374Z,32.93
2019-04-03T07:14:02.645Z,33.50
2019-04-03T07:15:56.831Z,32.17
2019-04-03T07:16:55.645Z,30.36
2019-04-03T07:18:48.446Z,32.26
2019-04-03T07:19:48.568Z,32.07
2019-04-03T07:21:41.524Z,32.45
2019-04-03T07:22:41.550Z,32.45
2019-04-03T07:24:34.568Z,31.88
2019-04-03T07:25:34.976Z,32.07
2019-04-03T07:27:27.758Z,33.03
2019-04-03T07:28:30.184Z,33.12
2019-04-03T07:30:21.788Z,33.31
2019-04-03T07:31:23.175Z,32.17
2019-04-03T07:33:13.669Z,32.07
2019-04-03T07:34:13.717Z,33.22
2019-04-03T07:36:06.907Z,33.40
2019-04-03T07:37:06.771Z,33.31
2019-04-03T07:38:59.784Z,31.21
2019-04-03T07:40:00.112Z,30.26
2019-04-03T07:41:54.139Z,27.79
2019-04-03T07:42:55.638Z,27.69
2019-04-03T07:44:45.914Z,41.49
2019-04-03T07:45:45.897Z,47.39
2019-04-03T07:47:38.870Z,40.90
2019-04-03T07:48:38.928Z,38.17
2019-04-03T07:50:31.933Z,36.45
2019-04-03T07:51:31.972Z,37.69
2019-04-03T07:53:25.125Z,33.22
2019-04-03T07:54:26.709Z,30.36
2019-04-03T07:56:18.005Z,28.45
2019-04-03T07:57:18.052Z,26.93
2019-04-03T07:59:11.050Z,27.79
2019-04-03T08:00:11.139Z,29.12
2019-04-03T08:02:04.240Z,34.44
2019-04-03T08:03:04.138Z,37.57
2019-04-03T08:05:00.056Z,36.81
2019-04-03T08:05:57.274Z,36.33
2019-04-03T08:07:50.171Z,35.38
2019-04-03T08:08:52.809Z,34.63
2019-04-03T08:10:43.221Z,34.53
2019-04-03T08:11:43.327Z,35.48
2019-04-03T08:13:38.165Z,36.93
2019-04-03T08:14:36.308Z,38.64
2019-04-03T08:16:29.308Z,41.97
2019-04-03T08:17:29.345Z,43.21
2019-04-03T08:19:23.492Z,43.11
2019-04-03T08:20:24.014Z,41.59
2019-04-03T08:22:15.397Z,40.92
2019-04-03T08:23:15.473Z,41.28
2019-04-03T08:25:10.636Z,47.18
2019-04-03T08:26:11.270Z,44.80
2019-04-03T08:28:01.480Z,47.58
2019-04-03T08:29:02.273Z,46.73
2019-04-03T08:30:54.510Z,39.78
2019-04-03T08:31:54.795Z,41.97
2019-04-03T08:33:47.559Z,41.02
2019-04-03T08:34:47.604Z,39.31
2019-04-03T08:36:40.617Z,42.44
2019-04-03T08:37:42.031Z,41.02
2019-04-03T08:39:33.941Z,44.64
2019-04-03T08:40:33.692Z,42.64
2019-04-03T08:42:27.998Z,43.32
2019-04-03T08:43:26.730Z,44.66
2019-04-03T08:45:21.982Z,48.06
2019-04-03T08:46:19.774Z,45.78
2019-04-03T08:48:12.783Z,43.99
2019-04-03T08:49:12.910Z,45.14
2019-04-03T08:51:06.043Z,44.75
2019-04-03T08:52:06.194Z,47.23
2019-04-03T08:53:58.869Z,44.37
2019-04-03T08:54:58.907Z,43.32
2019-04-03T08:56:52.137Z,42.37
2019-04-03T08:57:52.853Z,40.56
2019-04-03T08:59:45.083Z,38.95
2019-04-03T09:00:45.144Z,42.28
2019-04-03T09:02:37.983Z,44.56
2019-04-03T09:03:38.037Z,47.23
2019-04-03T09:05:31.029Z,46.56
2019-04-03T09:06:31.073Z,45.92
2019-04-03T09:08:26.088Z,45.73
2019-04-03T09:09:24.112Z,43.25
2019-04-03T09:11:17.479Z,43.35
2019-04-03T09:12:17.490Z,50.68
2019-04-03T09:14:10.136Z,51.73
2019-04-03T09:15:10.194Z,51.92
2019-04-03T09:17:03.602Z,47.54
2019-04-03T09:18:05.572Z,47.44
2019-04-03T09:19:57.217Z,44.56
2019-04-03T09:20:56.290Z,43.40
2019-04-03T09:22:49.270Z,39.50
2019-04-03T09:23:49.325Z,36.74
2019-04-03T09:25:42.318Z,36.35
2019-04-03T09:26:42.366Z,36.26
2019-04-03T09:28:35.360Z,38.17
2019-04-03T09:29:35.411Z,30.74
2019-04-03T09:31:28.413Z,35.60
2019-04-03T09:32:28.451Z,33.23
2019-04-03T09:34:21.433Z,34.75
2019-04-03T09:35:21.491Z,32.56
2019-04-03T09:37:17.402Z,32.18
2019-04-03T09:38:14.538Z,31.99
2019-04-03T09:40:07.521Z,30.47
2019-04-03T09:41:07.622Z,29.80
2019-04-03T09:43:00.586Z,33.23
2019-04-03T09:44:00.629Z,32.85
2019-04-03T09:45:53.714Z,33.25
2019-04-03T09:46:53.666Z,43.75
2019-04-03T09:48:46.850Z,51.06
2019-04-03T09:49:46.704Z,43.44
2019-04-03T09:51:39.718Z,42.87
2019-04-03T09:52:47.664Z,48.32
2019-04-03T09:54:32.829Z,55.83
2019-04-03T09:55:35.895Z,53.54
2019-04-03T09:57:25.785Z,42.77
2019-04-03T09:58:25.845Z,42.96
2019-04-03T10:00:18.849Z,48.68
2019-04-03T10:01:19.119Z,51.35
2019-04-03T10:03:12.436Z,51.45
2019-04-03T10:04:12.449Z,49.82
2019-04-03T10:06:05.445Z,46.47
2019-04-03T10:07:05.482Z,41.13
2019-04-03T10:08:58.490Z,39.99
2019-04-03T10:09:58.525Z,41.13
2019-04-03T10:11:52.481Z,35.80
2019-04-03T10:12:53.636Z,36.57
2019-04-03T10:14:44.571Z,35.13
2019-04-03T10:15:44.710Z,36.37
2019-04-03T10:17:38.566Z,35.23
2019-04-03T10:18:39.040Z,34.28
2019-04-03T10:20:30.854Z,35.42
2019-04-03T10:21:33.102Z,35.53
2019-04-03T10:23:23.671Z,43.63
2019-04-03T10:24:23.728Z,45.14
2019-04-03T10:26:16.728Z,45.80
2019-04-03T10:27:16.765Z,44.09
2019-04-03T10:29:09.752Z,39.90
2019-04-03T10:30:09.813Z,36.76
2019-04-03T10:32:02.960Z,38.17
2019-04-03T10:33:03.112Z,33.12
2019-04-03T10:34:57.393Z,29.22
2019-04-03T10:35:55.895Z,27.03
2019-04-03T10:37:48.934Z,28.08
2019-04-03T10:38:49.579Z,28.36
2019-04-03T10:40:42.174Z,26.17
2019-04-03T10:41:42.018Z,24.84
2019-04-03T10:43:37.309Z,22.94
2019-04-03T10:44:35.311Z,25.31
2019-04-03T10:46:28.043Z,23.22
2019-04-03T10:47:40.024Z,25.98
2019-04-03T10:49:21.104Z,24.17
2019-04-03T10:50:21.143Z,22.84
2019-04-03T10:52:14.457Z,23.03
2019-04-03T10:53:14.437Z,23.22
2019-04-03T10:55:07.175Z,20.56
2019-04-03T10:56:07.932Z,22.08
2019-04-03T10:58:01.894Z,20.37
2019-04-03T10:59:10.368Z,24.17
2019-04-03T11:00:53.263Z,26.46
2019-04-03T11:01:53.328Z,24.46
2019-04-03T11:03:47.162Z,23.42
2019-04-03T11:04:46.861Z,23.71
2019-04-03T11:06:40.157Z,24.17
2019-04-03T11:07:40.189Z,21.60
2019-04-03T11:09:32.891Z,21.70
2019-04-03T11:10:33.134Z,21.51
2019-04-03T11:12:25.923Z,20.46
2019-04-03T11:13:25.976Z,20.66
2019-04-03T11:15:19.096Z,21.51
2019-04-03T11:16:19.013Z,20.95
2019-04-03T11:18:12.022Z,21.33
2019-04-03T11:19:12.276Z,20.76
2019-04-03T11:21:05.039Z,21.23
2019-04-03T11:22:05.137Z,20.47
2019-04-03T11:23:58.124Z,24.85
2019-04-03T11:24:58.155Z,23.24
2019-04-03T11:26:52.463Z,26.28
2019-04-03T11:27:51.179Z,25.99
2019-04-03T11:29:44.173Z,27.99
2019-04-03T11:30:44.222Z,24.66
2019-04-03T11:32:37.466Z,24.19
2019-04-03T11:33:37.768Z,24.58
2019-04-03T11:35:30.559Z,24.19
2019-04-03T11:36:31.155Z,27.06
2019-04-03T11:38:27.884Z,26.58
2019-04-03T11:39:23.346Z,28.67
2019-04-03T11:41:18.814Z,28.96
2019-04-03T11:42:23.577Z,29.63
2019-04-03T11:44:09.495Z,26.66
2019-04-03T11:45:09.452Z,26.66
2019-04-03T11:47:02.447Z,26.67
2019-04-03T11:48:02.578Z,26.48
2019-04-03T11:49:55.601Z,28.39
2019-04-03T11:50:56.598Z,28.10
2019-04-03T11:52:51.274Z,28.19
2019-04-03T11:53:49.002Z,29.25
2019-04-03T11:55:42.030Z,27.44
2019-04-03T11:56:43.154Z,32.58
2019-04-03T11:58:34.632Z,38.51
2019-04-03T11:59:34.785Z,38.03
2019-04-03T12:01:27.684Z,35.06
2019-04-03T12:02:27.724Z,35.53
2019-04-03T12:04:20.710Z,35.55
2019-04-03T12:05:21.554Z,39.36
2019-04-03T12:07:14.022Z,43.18
2019-04-03T12:08:13.810Z,46.78
2019-04-03T12:10:06.813Z,49.54
2019-04-03T12:11:07.455Z,46.58
2019-04-03T12:12:59.870Z,45.56
2019-04-03T12:13:59.912Z,46.23
2019-04-03T12:15:53.973Z,57.38
2019-04-03T12:16:52.950Z,59.76
2019-04-03T12:18:45.953Z,60.72
2019-04-03T12:19:46.180Z,59.38
2019-04-03T12:21:39.009Z,56.17
2019-04-03T12:22:39.052Z,59.03
2019-04-03T12:24:32.043Z,62.56
2019-04-03T12:25:34.189Z,61.13
2019-04-03T12:27:25.171Z,58.26
2019-04-03T12:28:25.150Z,59.89
2019-04-03T12:30:18.310Z,57.50
2019-04-03T12:31:18.181Z,57.57
2019-04-03T12:33:11.194Z,53.85
2019-04-03T12:34:11.207Z,52.92
2019-04-03T12:36:06.517Z,53.19
2019-04-03T12:37:04.255Z,52.71
2019-04-03T12:38:57.305Z,51.18
2019-04-03T12:39:58.215Z,51.76
2019-04-03T12:41:50.342Z,53.00
2019-04-03T12:42:50.341Z,51.85
2019-04-03T12:44:43.345Z,53.56
2019-04-03T12:45:43.696Z,52.71
2019-04-03T12:47:36.386Z,57.09
2019-04-03T12:48:36.425Z,56.52
2019-04-03T12:50:29.412Z,54.14
2019-04-03T12:51:31.554Z,49.08
2019-04-03T12:53:22.477Z,50.52
2019-04-03T12:54:22.514Z,52.23
2019-04-03T12:56:15.521Z,50.99
2019-04-03T12:57:15.689Z,53.09
2019-04-03T12:59:09.484Z,52.97
2019-04-03T13:00:10.579Z,51.47
2019-04-03T13:02:01.610Z,53.00
2019-04-03T13:03:01.648Z,53.85
2019-04-03T13:04:54.874Z,61.67
2019-04-03T13:05:54.998Z,61.10
2019-04-03T13:07:48.093Z,59.95
2019-04-03T13:08:47.739Z,59.95
2019-04-03T13:10:45.028Z,58.72
2019-04-03T13:11:40.846Z,56.04
2019-04-03T13:13:33.805Z,60.52
2019-04-03T13:14:33.834Z,59.31
2019-04-03T13:16:26.845Z,59.22
2019-04-03T13:17:26.876Z,61.67
2019-04-03T13:19:20.328Z,61.48
2019-04-03T13:20:20.226Z,60.05
2019-04-03T13:22:12.911Z,61.19
2019-04-03T13:23:14.361Z,59.67
2019-04-03T13:25:05.941Z,59.28
2019-04-03T13:26:06.435Z,59.09
2019-04-03T13:27:58.998Z,61.96
2019-04-03T13:28:59.087Z,62.62
2019-04-03T13:30:52.024Z,60.43
2019-04-03T13:31:52.083Z,61.22
2019-04-03T13:33:45.086Z,61.32
2019-04-03T13:34:45.124Z,59.31
2019-04-03T13:36:38.124Z,65.52
2019-04-03T13:37:38.182Z,66.56
2019-04-03T13:39:33.623Z,61.51
2019-04-03T13:40:31.227Z,61.83
2019-04-03T13:42:24.390Z,62.56
2019-04-03T13:43:24.587Z,66.94
2019-04-03T13:45:17.271Z,63.51
2019-04-03T13:46:17.575Z,60.27
2019-04-03T13:48:13.278Z,65.99
2019-04-03T13:49:10.415Z,65.23
2019-04-03T13:51:03.364Z,65.13
2019-04-03T13:52:07.707Z,61.04
2019-04-03T13:53:56.376Z,60.84
2019-04-03T13:54:58.216Z,63.13
2019-04-03T13:56:52.095Z,61.80
2019-04-03T13:57:50.846Z,61.76
2019-04-03T13:59:42.549Z,57.57
2019-04-03T14:00:42.531Z,61.57
2019-04-03T14:02:35.535Z,55.79
2019-04-03T14:03:35.589Z,58.65
2019-04-03T14:05:32.285Z,60.55
2019-04-03T14:06:28.802Z,62.27
2019-04-03T14:08:21.961Z,58.55
2019-04-03T14:09:21.726Z,60.91
2019-04-03T14:11:14.632Z,60.81
2019-04-03T14:12:16.927Z,59.31
2019-04-03T14:14:07.746Z,62.56
2019-04-03T14:15:07.747Z,58.65
2019-04-03T14:17:00.756Z,60.91
2019-04-03T14:18:00.780Z,59.38
2019-04-03T14:19:53.782Z,55.21
2019-04-03T14:20:55.332Z,58.26
2019-04-03T14:22:46.829Z,56.93
2019-04-03T14:23:46.872Z,55.98
2019-04-03T14:25:39.887Z,52.26
2019-04-03T14:26:39.914Z,57.31
2019-04-03T14:28:34.624Z,55.57
2019-04-03T14:29:32.955Z,55.57
2019-04-03T14:31:34.939Z,50.71
2019-04-03T14:32:26.489Z,53.76
2019-04-03T14:34:18.986Z,53.47
2019-04-03T14:35:44.338Z,51.85
2019-04-03T14:37:12.383Z,51.09
2019-04-03T14:38:12.426Z,53.00
2019-04-03T14:40:05.646Z,49.37
2019-04-03T14:41:05.245Z,48.04
2019-04-03T14:42:58.718Z,51.28
2019-04-03T14:43:58.691Z,49.76
2019-04-03T14:45:51.182Z,49.66
2019-04-03T14:46:51.727Z,48.13
2019-04-03T14:48:44.226Z,49.28
2019-04-03T14:49:44.257Z,49.08
2019-04-03T14:51:37.521Z,50.99
2019-04-03T14:52:37.321Z,49.47
2019-04-03T14:54:31.742Z,48.32
2019-04-03T14:55:30.992Z,47.37
2019-04-03T14:57:24.433Z,48.90
2019-04-03T14:58:26.917Z,48.71
2019-04-03T15:00:26.445Z,49.66
2019-04-03T15:01:19.049Z,49.16
2019-04-03T15:03:10.280Z,45.65
2019-04-03T15:04:09.971Z,47.08
2019-04-03T15:06:02.991Z,49.76
2019-04-03T15:07:08.040Z,48.13
2019-04-03T15:08:56.063Z,48.32
2019-04-03T15:09:57.214Z,52.42
2019-04-03T15:11:49.601Z,51.66
2019-04-03T15:12:49.927Z,49.76
2019-04-03T15:14:42.815Z,48.13
2019-04-03T15:15:42.646Z,50.80
2019-04-03T15:17:37.621Z,47.94
2019-04-03T15:18:35.688Z,51.18
2019-04-03T15:20:28.723Z,48.99
2019-04-03T15:21:28.734Z,47.94
2019-04-03T15:23:21.977Z,50.99
2019-04-03T15:24:21.771Z,49.49
2019-04-03T15:26:14.784Z,53.56
2019-04-03T15:27:14.904Z,51.09
2019-04-03T15:29:07.846Z,52.71
2019-04-03T15:30:09.963Z,51.47
2019-04-03T15:32:00.875Z,51.37
2019-04-03T15:33:01.365Z,50.52
2019-04-03T15:34:54.191Z,49.66
2019-04-03T15:35:54.180Z,50.71
2019-04-03T15:37:46.958Z,50.52
2019-04-03T15:38:47.564Z,53.00
2019-04-03T15:40:40.008Z,53.28
2019-04-03T15:41:40.265Z,53.12
2019-04-03T15:43:33.098Z,54.07
2019-04-03T15:44:33.158Z,53.41
2019-04-03T15:46:28.434Z,56.07
2019-04-03T15:47:35.199Z,52.36
2019-04-03T15:49:19.126Z,58.26
2019-04-03T15:50:19.187Z,57.60
2019-04-03T15:52:12.818Z,57.12
2019-04-03T15:53:12.540Z,55.12
2019-04-03T15:55:05.562Z,54.33
2019-04-03T15:56:05.742Z,55.00
2019-04-03T15:57:58.251Z,53.38
2019-04-03T15:58:59.194Z,52.71
2019-04-03T16:00:51.489Z,52.80
2019-04-03T16:01:51.533Z,53.09
2019-04-03T16:03:44.712Z,52.04
2019-04-03T16:04:44.650Z,52.14
2019-04-03T16:06:37.400Z,48.32
2019-04-03T16:07:40.447Z,49.95
2019-04-03T16:09:30.443Z,48.80
2019-04-03T16:10:30.475Z,48.32
2019-04-03T16:12:23.500Z,51.18
2019-04-03T16:13:24.266Z,48.52
2019-04-03T16:15:16.528Z,50.13
2019-04-03T16:16:16.564Z,51.85
2019-04-03T16:18:09.548Z,51.28
2019-04-03T16:19:11.382Z,51.56
2019-04-03T16:21:02.746Z,50.13
2019-04-03T16:22:02.774Z,49.16
2019-04-03T16:23:56.110Z,51.37
2019-04-03T16:24:57.071Z,49.85
2019-04-03T16:26:49.318Z,49.08
2019-04-03T16:27:49.015Z,49.47
2019-04-03T16:29:42.003Z,48.11
2019-04-03T16:30:41.899Z,48.02
2019-04-03T16:32:35.256Z,49.08
2019-04-03T16:33:35.728Z,49.16
2019-04-03T16:35:27.950Z,49.56
2019-04-03T16:36:28.155Z,49.26
2019-04-03T16:38:20.879Z,49.63
2019-04-03T16:39:21.022Z,48.11
2019-04-03T16:41:13.953Z,49.28
2019-04-03T16:42:14.149Z,49.37
2019-04-03T16:44:06.978Z,48.80
2019-04-03T16:45:08.450Z,49.08
2019-04-03T16:47:00.365Z,47.47
2019-04-03T16:48:00.891Z,48.02
2019-04-03T16:49:54.862Z,48.97
2019-04-03T16:50:53.363Z,48.52
2019-04-03T16:52:47.355Z,48.21
2019-04-03T16:53:47.179Z,48.02
2019-04-03T16:55:39.267Z,47.44
2019-04-03T16:56:39.574Z,46.97
2019-04-03T16:58:32.458Z,44.49
2019-04-03T16:59:35.236Z,44.87
2019-04-03T17:01:25.813Z,45.83
2019-04-03T17:02:26.301Z,47.34
2019-04-03T17:04:25.417Z,45.06
2019-04-03T17:05:18.500Z,45.73
2019-04-03T17:07:11.623Z,46.20
2019-04-03T17:08:11.377Z,44.78
2019-04-03T17:10:04.628Z,46.11
2019-04-03T17:11:04.515Z,44.01
2019-04-03T17:12:57.462Z,42.77
2019-04-03T17:13:58.084Z,43.35
2019-04-03T17:15:58.593Z,44.39
2019-04-03T17:16:50.871Z,44.78
2019-04-03T17:20:44.035Z,45.63
2019-04-03T17:21:43.874Z,46.39
2019-04-03T17:23:36.941Z,45.44
2019-04-03T17:24:43.500Z,44.20
2019-04-03T17:26:29.766Z,44.87
2019-04-03T17:27:30.712Z,44.01
2019-04-03T17:29:22.752Z,43.63
2019-04-03T17:30:22.776Z,41.82
2019-04-03T17:32:16.346Z,39.34
2019-04-03T17:33:16.002Z,40.97
2019-04-03T17:35:09.876Z,40.58
2019-04-03T17:36:09.400Z,40.30
2019-04-03T17:38:02.414Z,37.06
2019-04-03T17:39:04.552Z,38.01
2019-04-03T17:40:55.398Z,38.39
2019-04-03T17:41:55.417Z,38.29
2019-04-03T17:43:48.462Z,37.15
2019-04-03T17:44:48.810Z,36.20
2019-04-03T17:46:41.534Z,38.10
2019-04-03T17:47:41.579Z,39.34
2019-04-03T17:49:34.533Z,41.82
2019-04-03T17:50:34.671Z,40.20
2019-04-03T17:52:27.567Z,40.97
2019-04-03T17:53:27.619Z,41.53
2019-04-03T17:55:20.620Z,40.30
2019-04-03T17:56:20.658Z,38.29
2019-04-03T17:58:16.454Z,37.63
2019-04-03T17:59:13.696Z,36.87
2019-04-03T18:01:06.684Z,36.68
2019-04-03T18:02:06.736Z,37.54
2019-04-03T18:03:59.757Z,39.15
2019-04-03T18:04:59.801Z,37.92
2019-04-03T18:06:52.779Z,35.25
2019-04-03T18:07:52.844Z,36.10
2019-04-03T18:09:45.840Z,35.53
2019-04-03T18:10:45.874Z,34.39
2019-04-03T18:12:38.896Z,33.63
2019-04-03T18:13:38.926Z,35.25
2019-04-03T18:15:33.020Z,35.35
2019-04-03T18:16:32.262Z,33.72
2019-04-03T18:18:25.181Z,32.01
2019-04-03T18:21:31.830Z,29.53
2019-04-03T18:22:24.234Z,30.10
2019-04-03T18:25:30.961Z,29.04
2019-04-03T18:26:21.106Z,28.28
2019-04-03T18:28:17.225Z,27.90
2019-04-03T18:29:17.550Z,28.09
2019-04-03T18:31:11.823Z,29.61
2019-04-03T18:32:10.200Z,28.75
2019-04-03T18:34:03.210Z,24.29
2019-04-03T18:35:03.249Z,23.42
2019-04-03T18:36:56.229Z,21.99
2019-04-03T18:37:56.324Z,19.42